sensor_id;sensor_type;location;lat;lon;timestamp;temperature;humidity
27534;DHT22;14973;51.460;7.008;2023-04-16T00:01:32;8.30;99.90
27534;DHT22;14973;51.460;7.008;2023-04-16T00:03:58;8.30;99.90
27534;DHT22;14973;51.460;7.008;2023-04-16T00:06:23;8.40;99.90
27534;DHT22;14973;51.460;7.008;2023-04-16T00:08:49;8.40;99.90
27534;DHT22;14973;51.460;7.008;2023-04-16T00:11:16;8.40;99.90
27534;DHT22;14973;51.460;7.008;2023-04-16T00:13:41;8.40;99.90
27534;DHT22;14973;51.460;7.008;2023-04-16T00:16:07;8.50;99.90
27534;DHT22;14973;51.460;7.008;2023-04-16T00:18:32;8.50;99.90
27534;DHT22;14973;51.460;7.008;2023-04-16T00:20:58;8.50;99.90
27534;DHT22;14973;51.460;7.008;2023-04-16T00:23:23;8.50;99.90
27534;DHT22;14973;51.460;7.008;2023-04-16T00:25:49;8.50;99.90
27534;DHT22;14973;51.460;7.008;2023-04-16T00:28:15;8.50;99.90
27534;DHT22;14973;51.460;7.008;2023-04-16T00:30:40;8.50;99.90
27534;DHT22;14973;51.460;7.008;2023-04-16T00:33:06;8.50;99.90
27534;DHT22;14973;51.460;7.008;2023-04-16T00:35:31;8.50;99.90
27534;DHT22;14973;51.460;7.008;2023-04-16T00:37:57;8.50;99.90
27534;DHT22;14973;51.460;7.008;2023-04-16T00:40:25;8.50;99.90
27534;DHT22;14973;51.460;7.008;2023-04-16T00:42:51;8.50;99.90
27534;DHT22;14973;51.460;7.008;2023-04-16T00:45:16;8.50;99.90
27534;DHT22;14973;51.460;7.008;2023-04-16T00:47:42;8.40;99.90
27534;DHT22;14973;51.460;7.008;2023-04-16T00:50:08;8.50;99.90
27534;DHT22;14973;51.460;7.008;2023-04-16T00:52:34;8.50;99.90
27534;DHT22;14973;51.460;7.008;2023-04-16T00:55:00;8.50;99.90
27534;DHT22;14973;51.460;7.008;2023-04-16T00:57:25;8.40;99.90
27534;DHT22;14973;51.460;7.008;2023-04-16T00:59:51;8.50;99.90
27534;DHT22;14973;51.460;7.008;2023-04-16T01:02:17;8.50;99.90
27534;DHT22;14973;51.460;7.008;2023-04-16T01:04:42;8.40;99.90
27534;DHT22;14973;51.460;7.008;2023-04-16T01:07:08;8.40;99.90
27534;DHT22;14973;51.460;7.008;2023-04-16T01:09:33;8.40;99.90
27534;DHT22;14973;51.460;7.008;2023-04-16T01:11:59;8.40;99.90
27534;DHT22;14973;51.460;7.008;2023-04-16T01:14:24;8.40;99.90
27534;DHT22;14973;51.460;7.008;2023-04-16T01:16:50;8.50;99.90
27534;DHT22;14973;51.460;7.008;2023-04-16T01:19:15;8.50;99.90
27534;DHT22;14973;51.460;7.008;2023-04-16T01:21:41;8.50;99.90
27534;DHT22;14973;51.460;7.008;2023-04-16T01:24:06;8.50;99.90
27534;DHT22;14973;51.460;7.008;2023-04-16T01:26:32;8.60;99.90
27534;DHT22;14973;51.460;7.008;2023-04-16T01:28:57;8.50;99.90
27534;DHT22;14973;51.460;7.008;2023-04-16T01:31:23;8.50;99.90
27534;DHT22;14973;51.460;7.008;2023-04-16T01:33:48;8.50;99.90
27534;DHT22;14973;51.460;7.008;2023-04-16T01:36:14;8.60;99.90
27534;DHT22;14973;51.460;7.008;2023-04-16T01:38:39;8.50;99.90
27534;DHT22;14973;51.460;7.008;2023-04-16T01:41:05;8.60;99.90
27534;DHT22;14973;51.460;7.008;2023-04-16T01:43:30;8.60;99.90
27534;DHT22;14973;51.460;7.008;2023-04-16T01:46:17;8.50;99.90
27534;DHT22;14973;51.460;7.008;2023-04-16T01:48:42;8.60;99.90
27534;DHT22;14973;51.460;7.008;2023-04-16T01:51:08;8.50;99.90
27534;DHT22;14973;51.460;7.008;2023-04-16T01:53:34;8.50;99.90
27534;DHT22;14973;51.460;7.008;2023-04-16T01:56:00;8.50;99.90
27534;DHT22;14973;51.460;7.008;2023-04-16T01:58:27;8.50;99.90
27534;DHT22;14973;51.460;7.008;2023-04-16T02:00:52;8.60;99.90
27534;DHT22;14973;51.460;7.008;2023-04-16T02:03:18;8.60;99.90
27534;DHT22;14973;51.460;7.008;2023-04-16T02:05:43;8.60;99.90
27534;DHT22;14973;51.460;7.008;2023-04-16T02:08:09;8.70;99.90
27534;DHT22;14973;51.460;7.008;2023-04-16T02:10:34;8.70;99.90
27534;DHT22;14973;51.460;7.008;2023-04-16T02:13:00;8.70;99.90
27534;DHT22;14973;51.460;7.008;2023-04-16T02:15:25;8.70;99.90
27534;DHT22;14973;51.460;7.008;2023-04-16T02:17:51;8.70;99.90
27534;DHT22;14973;51.460;7.008;2023-04-16T02:20:20;8.70;99.90
27534;DHT22;14973;51.460;7.008;2023-04-16T02:22:46;8.70;99.90
27534;DHT22;14973;51.460;7.008;2023-04-16T02:25:11;8.70;99.90
27534;DHT22;14973;51.460;7.008;2023-04-16T02:27:38;8.80;99.90
27534;DHT22;14973;51.460;7.008;2023-04-16T02:30:04;8.80;99.90
27534;DHT22;14973;51.460;7.008;2023-04-16T02:32:30;8.80;99.90
27534;DHT22;14973;51.460;7.008;2023-04-16T02:34:55;8.80;99.90
27534;DHT22;14973;51.460;7.008;2023-04-16T02:37:21;8.80;99.90
27534;DHT22;14973;51.460;7.008;2023-04-16T02:39:47;8.90;99.90
27534;DHT22;14973;51.460;7.008;2023-04-16T02:42:14;8.80;99.90
27534;DHT22;14973;51.460;7.008;2023-04-16T02:44:40;8.80;99.90
27534;DHT22;14973;51.460;7.008;2023-04-16T02:47:06;8.80;99.90
27534;DHT22;14973;51.460;7.008;2023-04-16T02:49:31;8.80;99.90
27534;DHT22;14973;51.460;7.008;2023-04-16T02:51:57;8.70;99.90
27534;DHT22;14973;51.460;7.008;2023-04-16T02:54:22;8.70;99.90
27534;DHT22;14973;51.460;7.008;2023-04-16T02:56:47;8.70;99.90
27534;DHT22;14973;51.460;7.008;2023-04-16T02:59:13;8.70;99.90
27534;DHT22;14973;51.460;7.008;2023-04-16T03:01:38;8.80;99.90
27534;DHT22;14973;51.460;7.008;2023-04-16T03:04:04;8.80;99.90
27534;DHT22;14973;51.460;7.008;2023-04-16T03:06:30;8.80;99.90
27534;DHT22;14973;51.460;7.008;2023-04-16T03:08:55;8.70;99.90
27534;DHT22;14973;51.460;7.008;2023-04-16T03:11:21;8.80;99.90
27534;DHT22;14973;51.460;7.008;2023-04-16T03:13:47;8.80;99.90
27534;DHT22;14973;51.460;7.008;2023-04-16T03:16:12;8.70;99.90
27534;DHT22;14973;51.460;7.008;2023-04-16T03:18:37;8.70;99.90
27534;DHT22;14973;51.460;7.008;2023-04-16T03:21:03;8.80;99.90
27534;DHT22;14973;51.460;7.008;2023-04-16T03:23:29;8.80;99.90
27534;DHT22;14973;51.460;7.008;2023-04-16T03:25:55;8.80;99.90
27534;DHT22;14973;51.460;7.008;2023-04-16T03:28:20;8.80;99.90
27534;DHT22;14973;51.460;7.008;2023-04-16T03:30:49;8.90;99.90
27534;DHT22;14973;51.460;7.008;2023-04-16T03:33:15;8.90;99.90
27534;DHT22;14973;51.460;7.008;2023-04-16T03:35:40;8.90;99.90
27534;DHT22;14973;51.460;7.008;2023-04-16T03:38:06;8.90;99.90
27534;DHT22;14973;51.460;7.008;2023-04-16T03:40:31;8.90;99.90
27534;DHT22;14973;51.460;7.008;2023-04-16T03:42:57;8.90;99.90
27534;DHT22;14973;51.460;7.008;2023-04-16T03:45:22;8.90;99.90
27534;DHT22;14973;51.460;7.008;2023-04-16T03:47:48;8.90;99.90
27534;DHT22;14973;51.460;7.008;2023-04-16T03:50:19;8.90;99.90
27534;DHT22;14973;51.460;7.008;2023-04-16T03:52:45;8.90;99.90
27534;DHT22;14973;51.460;7.008;2023-04-16T03:55:11;8.90;99.90
27534;DHT22;14973;51.460;7.008;2023-04-16T03:57:38;8.90;99.90
27534;DHT22;14973;51.460;7.008;2023-04-16T04:00:03;8.80;99.90
27534;DHT22;14973;51.460;7.008;2023-04-16T04:02:29;8.80;99.90
27534;DHT22;14973;51.460;7.008;2023-04-16T04:04:54;8.90;99.90
27534;DHT22;14973;51.460;7.008;2023-04-16T04:07:20;8.90;99.90
27534;DHT22;14973;51.460;7.008;2023-04-16T04:09:45;8.90;99.90
27534;DHT22;14973;51.460;7.008;2023-04-16T04:12:11;8.80;99.90
27534;DHT22;14973;51.460;7.008;2023-04-16T04:14:37;8.80;99.90
27534;DHT22;14973;51.460;7.008;2023-04-16T04:17:04;8.80;99.90
27534;DHT22;14973;51.460;7.008;2023-04-16T04:19:30;8.90;99.90
27534;DHT22;14973;51.460;7.008;2023-04-16T04:21:55;8.80;99.90
27534;DHT22;14973;51.460;7.008;2023-04-16T04:24:21;8.80;99.90
27534;DHT22;14973;51.460;7.008;2023-04-16T04:26:46;8.90;99.90
27534;DHT22;14973;51.460;7.008;2023-04-16T04:29:12;8.90;99.90
27534;DHT22;14973;51.460;7.008;2023-04-16T04:31:37;8.90;99.90
27534;DHT22;14973;51.460;7.008;2023-04-16T04:34:03;8.90;99.90
27534;DHT22;14973;51.460;7.008;2023-04-16T04:36:28;8.80;99.90
27534;DHT22;14973;51.460;7.008;2023-04-16T04:38:54;8.90;99.90
27534;DHT22;14973;51.460;7.008;2023-04-16T04:41:19;8.90;99.90
27534;DHT22;14973;51.460;7.008;2023-04-16T04:43:45;8.90;99.90
27534;DHT22;14973;51.460;7.008;2023-04-16T04:46:11;8.90;99.90
27534;DHT22;14973;51.460;7.008;2023-04-16T04:48:36;8.90;99.90
27534;DHT22;14973;51.460;7.008;2023-04-16T04:51:02;8.90;99.90
27534;DHT22;14973;51.460;7.008;2023-04-16T04:53:28;8.90;99.90
27534;DHT22;14973;51.460;7.008;2023-04-16T04:55:54;9.00;99.90
27534;DHT22;14973;51.460;7.008;2023-04-16T04:58:20;9.00;99.90
27534;DHT22;14973;51.460;7.008;2023-04-16T05:00:45;9.00;99.90
27534;DHT22;14973;51.460;7.008;2023-04-16T05:03:10;9.00;99.90
27534;DHT22;14973;51.460;7.008;2023-04-16T05:05:39;8.90;99.90
27534;DHT22;14973;51.460;7.008;2023-04-16T05:08:05;8.90;99.90
27534;DHT22;14973;51.460;7.008;2023-04-16T05:10:31;8.90;99.90
27534;DHT22;14973;51.460;7.008;2023-04-16T05:12:56;8.90;99.90
27534;DHT22;14973;51.460;7.008;2023-04-16T05:15:22;8.80;99.90
27534;DHT22;14973;51.460;7.008;2023-04-16T05:17:47;9.00;99.90
27534;DHT22;14973;51.460;7.008;2023-04-16T05:20:13;9.00;99.90
27534;DHT22;14973;51.460;7.008;2023-04-16T05:22:39;9.00;99.90
27534;DHT22;14973;51.460;7.008;2023-04-16T05:25:04;9.10;99.90
27534;DHT22;14973;51.460;7.008;2023-04-16T05:27:30;9.10;99.90
27534;DHT22;14973;51.460;7.008;2023-04-16T05:29:55;9.10;99.90
27534;DHT22;14973;51.460;7.008;2023-04-16T05:32:21;9.10;99.90
27534;DHT22;14973;51.460;7.008;2023-04-16T05:34:47;9.10;99.90
27534;DHT22;14973;51.460;7.008;2023-04-16T05:37:12;9.10;99.90
27534;DHT22;14973;51.460;7.008;2023-04-16T05:39:37;9.00;99.90
27534;DHT22;14973;51.460;7.008;2023-04-16T05:42:03;9.10;99.90
27534;DHT22;14973;51.460;7.008;2023-04-16T05:44:28;9.10;99.90
27534;DHT22;14973;51.460;7.008;2023-04-16T05:46:54;9.20;99.90
27534;DHT22;14973;51.460;7.008;2023-04-16T05:49:19;9.20;99.90
27534;DHT22;14973;51.460;7.008;2023-04-16T05:51:46;9.20;99.90
27534;DHT22;14973;51.460;7.008;2023-04-16T05:54:12;9.10;99.90
27534;DHT22;14973;51.460;7.008;2023-04-16T05:56:37;9.20;99.90
27534;DHT22;14973;51.460;7.008;2023-04-16T05:59:03;9.10;99.90
27534;DHT22;14973;51.460;7.008;2023-04-16T06:01:28;9.20;99.90
27534;DHT22;14973;51.460;7.008;2023-04-16T06:03:54;9.20;99.90
27534;DHT22;14973;51.460;7.008;2023-04-16T06:06:19;9.30;99.90
27534;DHT22;14973;51.460;7.008;2023-04-16T06:08:45;9.30;99.90
27534;DHT22;14973;51.460;7.008;2023-04-16T06:11:10;9.30;99.90
27534;DHT22;14973;51.460;7.008;2023-04-16T06:13:37;9.20;99.90
27534;DHT22;14973;51.460;7.008;2023-04-16T06:16:03;9.30;99.90
27534;DHT22;14973;51.460;7.008;2023-04-16T06:18:28;9.20;99.90
27534;DHT22;14973;51.460;7.008;2023-04-16T06:20:54;9.30;99.90
27534;DHT22;14973;51.460;7.008;2023-04-16T06:23:19;9.30;99.90
27534;DHT22;14973;51.460;7.008;2023-04-16T06:25:45;9.30;99.90
27534;DHT22;14973;51.460;7.008;2023-04-16T06:28:10;9.30;99.90
27534;DHT22;14973;51.460;7.008;2023-04-16T06:30:36;9.40;99.90
27534;DHT22;14973;51.460;7.008;2023-04-16T06:33:01;9.40;99.90
27534;DHT22;14973;51.460;7.008;2023-04-16T06:35:27;9.40;99.90
27534;DHT22;14973;51.460;7.008;2023-04-16T06:37:52;9.40;99.90
27534;DHT22;14973;51.460;7.008;2023-04-16T06:40:18;9.50;99.90
27534;DHT22;14973;51.460;7.008;2023-04-16T06:42:43;9.40;99.90
27534;DHT22;14973;51.460;7.008;2023-04-16T06:45:09;9.50;99.90
27534;DHT22;14973;51.460;7.008;2023-04-16T06:47:34;9.50;99.90
27534;DHT22;14973;51.460;7.008;2023-04-16T06:50:00;9.50;99.90
27534;DHT22;14973;51.460;7.008;2023-04-16T06:52:25;9.50;99.90
27534;DHT22;14973;51.460;7.008;2023-04-16T06:54:51;9.50;99.90
27534;DHT22;14973;51.460;7.008;2023-04-16T06:57:16;9.60;99.90
27534;DHT22;14973;51.460;7.008;2023-04-16T06:59:42;9.90;99.90
27534;DHT22;14973;51.460;7.008;2023-04-16T07:02:08;9.90;99.90
27534;DHT22;14973;51.460;7.008;2023-04-16T07:04:34;9.90;99.90
27534;DHT22;14973;51.460;7.008;2023-04-16T07:07:00;10.00;99.90
27534;DHT22;14973;51.460;7.008;2023-04-16T07:09:25;10.00;99.90
27534;DHT22;14973;51.460;7.008;2023-04-16T07:11:51;10.00;99.90
27534;DHT22;14973;51.460;7.008;2023-04-16T07:14:17;10.10;99.90
27534;DHT22;14973;51.460;7.008;2023-04-16T07:16:42;10.10;99.90
27534;DHT22;14973;51.460;7.008;2023-04-16T07:19:08;10.20;99.90
27534;DHT22;14973;51.460;7.008;2023-04-16T07:21:34;10.30;99.90
27534;DHT22;14973;51.460;7.008;2023-04-16T07:23:59;10.30;99.90
27534;DHT22;14973;51.460;7.008;2023-04-16T07:26:25;10.30;99.90
27534;DHT22;14973;51.460;7.008;2023-04-16T07:28:50;10.40;99.90
27534;DHT22;14973;51.460;7.008;2023-04-16T07:31:16;10.40;99.90
27534;DHT22;14973;51.460;7.008;2023-04-16T07:33:41;10.40;99.90
27534;DHT22;14973;51.460;7.008;2023-04-16T07:36:07;10.50;99.90
27534;DHT22;14973;51.460;7.008;2023-04-16T07:38:32;10.40;99.90
27534;DHT22;14973;51.460;7.008;2023-04-16T07:40:59;10.50;99.90
27534;DHT22;14973;51.460;7.008;2023-04-16T07:43:25;10.70;99.90
27534;DHT22;14973;51.460;7.008;2023-04-16T07:45:50;10.50;99.90
27534;DHT22;14973;51.460;7.008;2023-04-16T07:48:16;10.60;99.90
27534;DHT22;14973;51.460;7.008;2023-04-16T07:50:41;10.70;99.90
27534;DHT22;14973;51.460;7.008;2023-04-16T07:53:10;10.70;99.90
27534;DHT22;14973;51.460;7.008;2023-04-16T07:55:36;10.70;99.90
27534;DHT22;14973;51.460;7.008;2023-04-16T07:58:01;10.70;99.90
27534;DHT22;14973;51.460;7.008;2023-04-16T08:00:27;10.70;99.90
27534;DHT22;14973;51.460;7.008;2023-04-16T08:02:53;10.70;99.90
27534;DHT22;14973;51.460;7.008;2023-04-16T08:05:19;10.70;99.90
27534;DHT22;14973;51.460;7.008;2023-04-16T08:07:44;10.80;99.90
27534;DHT22;14973;51.460;7.008;2023-04-16T08:10:10;10.80;99.90
27534;DHT22;14973;51.460;7.008;2023-04-16T08:12:35;11.00;99.90
27534;DHT22;14973;51.460;7.008;2023-04-16T08:15:01;11.10;98.80
27534;DHT22;14973;51.460;7.008;2023-04-16T08:17:26;11.20;99.00
27534;DHT22;14973;51.460;7.008;2023-04-16T08:19:53;11.40;97.70
27534;DHT22;14973;51.460;7.008;2023-04-16T08:22:19;11.50;96.40
27534;DHT22;14973;51.460;7.008;2023-04-16T08:24:44;11.60;95.10
27534;DHT22;14973;51.460;7.008;2023-04-16T08:27:10;11.80;88.40
27534;DHT22;14973;51.460;7.008;2023-04-16T08:29:36;11.90;91.00
27534;DHT22;14973;51.460;7.008;2023-04-16T08:32:01;12.00;84.10
27534;DHT22;14973;51.460;7.008;2023-04-16T08:34:27;12.20;80.90
27534;DHT22;14973;51.460;7.008;2023-04-16T08:36:53;12.30;68.30
27534;DHT22;14973;51.460;7.008;2023-04-16T08:39:18;12.20;71.40
27534;DHT22;14973;51.460;7.008;2023-04-16T08:41:44;12.10;75.60
27534;DHT22;14973;51.460;7.008;2023-04-16T08:44:17;12.20;69.70
27534;DHT22;14973;51.460;7.008;2023-04-16T08:46:43;12.30;62.90
27534;DHT22;14973;51.460;7.008;2023-04-16T08:49:11;12.50;54.40
27534;DHT22;14973;51.460;7.008;2023-04-16T08:51:38;12.50;51.20
27534;DHT22;14973;51.460;7.008;2023-04-16T08:54:07;12.20;62.40
27534;DHT22;14973;51.460;7.008;2023-04-16T08:56:36;12.30;55.70
27534;DHT22;14973;51.460;7.008;2023-04-16T08:59:02;12.10;62.00
27534;DHT22;14973;51.460;7.008;2023-04-16T09:01:32;12.20;67.80
27534;DHT22;14973;51.460;7.008;2023-04-16T09:03:58;12.00;63.90
27534;DHT22;14973;51.460;7.008;2023-04-16T09:06:28;12.10;64.00
27534;DHT22;14973;51.460;7.008;2023-04-16T09:08:55;12.20;61.00
27534;DHT22;14973;51.460;7.008;2023-04-16T09:11:22;12.30;62.20
27534;DHT22;14973;51.460;7.008;2023-04-16T09:13:48;12.20;57.10
27534;DHT22;14973;51.460;7.008;2023-04-16T09:16:14;12.10;62.80
27534;DHT22;14973;51.460;7.008;2023-04-16T09:18:39;12.00;62.10
27534;DHT22;14973;51.460;7.008;2023-04-16T09:21:06;12.00;65.50
27534;DHT22;14973;51.460;7.008;2023-04-16T09:23:33;12.00;59.20
27534;DHT22;14973;51.460;7.008;2023-04-16T09:25:59;12.00;59.90
27534;DHT22;14973;51.460;7.008;2023-04-16T09:28:37;11.90;62.50
27534;DHT22;14973;51.460;7.008;2023-04-16T09:31:07;12.00;67.80
27534;DHT22;14973;51.460;7.008;2023-04-16T09:33:32;12.10;72.00
27534;DHT22;14973;51.460;7.008;2023-04-16T09:35:58;12.20;72.20
27534;DHT22;14973;51.460;7.008;2023-04-16T09:38:23;12.30;64.60
27534;DHT22;14973;51.460;7.008;2023-04-16T09:41:06;12.40;59.60
27534;DHT22;14973;51.460;7.008;2023-04-16T09:43:32;12.60;59.50
27534;DHT22;14973;51.460;7.008;2023-04-16T09:45:57;12.80;50.80
27534;DHT22;14973;51.460;7.008;2023-04-16T09:48:27;12.70;52.30
27534;DHT22;14973;51.460;7.008;2023-04-16T09:50:52;12.90;46.20
27534;DHT22;14973;51.460;7.008;2023-04-16T09:53:24;13.00;45.70
27534;DHT22;14973;51.460;7.008;2023-04-16T09:55:56;13.20;40.10
27534;DHT22;14973;51.460;7.008;2023-04-16T09:58:22;13.30;29.10
27534;DHT22;14973;51.460;7.008;2023-04-16T10:00:49;13.50;1.00
27534;DHT22;14973;51.460;7.008;2023-04-16T10:03:27;13.60;99.90
27534;DHT22;14973;51.460;7.008;2023-04-16T10:05:53;13.70;1.00
27534;DHT22;14973;51.460;7.008;2023-04-16T10:08:18;13.90;78.60
27534;DHT22;14973;51.460;7.008;2023-04-16T10:10:44;14.10;14.60
27534;DHT22;14973;51.460;7.008;2023-04-16T10:13:09;14.40;99.90
27534;DHT22;14973;51.460;7.008;2023-04-16T10:15:36;14.40;99.90
27534;DHT22;14973;51.460;7.008;2023-04-16T10:18:03;14.50;99.90
27534;DHT22;14973;51.460;7.008;2023-04-16T10:20:29;14.50;99.90
27534;DHT22;14973;51.460;7.008;2023-04-16T10:22:54;14.70;99.90
27534;DHT22;14973;51.460;7.008;2023-04-16T10:25:20;14.50;99.90
27534;DHT22;14973;51.460;7.008;2023-04-16T10:27:47;14.40;14.60
27534;DHT22;14973;51.460;7.008;2023-04-16T10:30:14;14.50;99.90
27534;DHT22;14973;51.460;7.008;2023-04-16T10:32:40;14.70;1.00
27534;DHT22;14973;51.460;7.008;2023-04-16T10:35:06;14.60;1.00
27534;DHT22;14973;51.460;7.008;2023-04-16T10:37:31;14.60;99.90
27534;DHT22;14973;51.460;7.008;2023-04-16T10:39:57;14.70;99.90
27534;DHT22;14973;51.460;7.008;2023-04-16T10:42:24;14.60;99.90
27534;DHT22;14973;51.460;7.008;2023-04-16T10:44:50;14.60;99.90
27534;DHT22;14973;51.460;7.008;2023-04-16T10:47:15;14.90;1.00
27534;DHT22;14973;51.460;7.008;2023-04-16T10:49:41;15.20;1.00
27534;DHT22;14973;51.460;7.008;2023-04-16T10:52:14;15.60;1.00
27534;DHT22;14973;51.460;7.008;2023-04-16T10:54:43;15.40;1.00
27534;DHT22;14973;51.460;7.008;2023-04-16T10:57:09;15.30;99.90
27534;DHT22;14973;51.460;7.008;2023-04-16T10:59:36;15.40;1.00
27534;DHT22;14973;51.460;7.008;2023-04-16T11:02:06;15.70;99.90
27534;DHT22;14973;51.460;7.008;2023-04-16T11:04:33;15.80;99.90
27534;DHT22;14973;51.460;7.008;2023-04-16T11:09:46;15.20;99.90
27534;DHT22;14973;51.460;7.008;2023-04-16T11:12:15;15.00;99.90
27534;DHT22;14973;51.460;7.008;2023-04-16T11:14:41;14.80;99.90
27534;DHT22;14973;51.460;7.008;2023-04-16T11:17:06;15.00;99.90
27534;DHT22;14973;51.460;7.008;2023-04-16T11:19:34;15.00;99.90
27534;DHT22;14973;51.460;7.008;2023-04-16T11:21:59;15.10;99.90
27534;DHT22;14973;51.460;7.008;2023-04-16T11:24:28;15.20;99.90
27534;DHT22;14973;51.460;7.008;2023-04-16T11:26:54;15.50;15.80
27534;DHT22;14973;51.460;7.008;2023-04-16T11:29:19;16.00;1.00
27534;DHT22;14973;51.460;7.008;2023-04-16T11:31:48;16.40;1.00
27534;DHT22;14973;51.460;7.008;2023-04-16T11:34:14;16.40;99.90
27534;DHT22;14973;51.460;7.008;2023-04-16T11:36:41;16.60;99.90
27534;DHT22;14973;51.460;7.008;2023-04-16T11:39:07;16.70;99.90
27534;DHT22;14973;51.460;7.008;2023-04-16T11:41:32;16.50;99.90
27534;DHT22;14973;51.460;7.008;2023-04-16T11:43:58;16.40;99.90
27534;DHT22;14973;51.460;7.008;2023-04-16T11:46:36;16.30;99.90
27534;DHT22;14973;51.460;7.008;2023-04-16T11:49:01;16.40;99.90
27534;DHT22;14973;51.460;7.008;2023-04-16T11:51:28;16.70;99.90
27534;DHT22;14973;51.460;7.008;2023-04-16T11:53:54;16.40;99.90
27534;DHT22;14973;51.460;7.008;2023-04-16T11:56:33;16.60;99.90
27534;DHT22;14973;51.460;7.008;2023-04-16T11:59:11;16.70;99.90
27534;DHT22;14973;51.460;7.008;2023-04-16T12:01:38;16.70;99.90
27534;DHT22;14973;51.460;7.008;2023-04-16T12:04:04;16.40;99.90
27534;DHT22;14973;51.460;7.008;2023-04-16T12:06:30;16.00;99.90
27534;DHT22;14973;51.460;7.008;2023-04-16T12:08:57;15.80;99.90
27534;DHT22;14973;51.460;7.008;2023-04-16T12:11:38;15.60;99.90
27534;DHT22;14973;51.460;7.008;2023-04-16T12:14:10;15.40;99.90
27534;DHT22;14973;51.460;7.008;2023-04-16T12:16:36;15.40;99.90
27534;DHT22;14973;51.460;7.008;2023-04-16T12:19:02;15.40;99.90
27534;DHT22;14973;51.460;7.008;2023-04-16T12:21:38;15.50;99.90
27534;DHT22;14973;51.460;7.008;2023-04-16T12:24:05;15.40;99.90
27534;DHT22;14973;51.460;7.008;2023-04-16T12:26:40;15.20;99.90
27534;DHT22;14973;51.460;7.008;2023-04-16T12:29:22;15.30;99.90
27534;DHT22;14973;51.460;7.008;2023-04-16T12:31:49;15.00;99.90
27534;DHT22;14973;51.460;7.008;2023-04-16T12:34:14;14.90;1.00
27534;DHT22;14973;51.460;7.008;2023-04-16T12:36:41;14.90;1.00
27534;DHT22;14973;51.460;7.008;2023-04-16T12:39:07;15.00;1.00
27534;DHT22;14973;51.460;7.008;2023-04-16T12:41:36;15.20;99.90
27534;DHT22;14973;51.460;7.008;2023-04-16T12:44:08;15.00;1.00
27534;DHT22;14973;51.460;7.008;2023-04-16T12:46:36;14.90;1.00
27534;DHT22;14973;51.460;7.008;2023-04-16T12:49:02;15.00;1.00
27534;DHT22;14973;51.460;7.008;2023-04-16T12:51:28;14.90;1.00
27534;DHT22;14973;51.460;7.008;2023-04-16T12:53:53;14.70;1.00
27534;DHT22;14973;51.460;7.008;2023-04-16T12:56:19;14.80;1.00
27534;DHT22;14973;51.460;7.008;2023-04-16T12:58:45;14.90;1.00
27534;DHT22;14973;51.460;7.008;2023-04-16T13:01:10;15.00;1.00
27534;DHT22;14973;51.460;7.008;2023-04-16T13:03:36;15.20;1.00
27534;DHT22;14973;51.460;7.008;2023-04-16T13:06:02;15.40;1.00
27534;DHT22;14973;51.460;7.008;2023-04-16T13:08:27;15.50;1.00
27534;DHT22;14973;51.460;7.008;2023-04-16T13:10:53;15.60;1.00
27534;DHT22;14973;51.460;7.008;2023-04-16T13:13:19;15.40;99.90
27534;DHT22;14973;51.460;7.008;2023-04-16T13:15:44;15.30;1.00
27534;DHT22;14973;51.460;7.008;2023-04-16T13:18:10;15.40;1.00
27534;DHT22;14973;51.460;7.008;2023-04-16T13:20:36;15.30;1.00
27534;DHT22;14973;51.460;7.008;2023-04-16T13:23:01;15.50;1.00
27534;DHT22;14973;51.460;7.008;2023-04-16T13:25:29;15.50;1.00
27534;DHT22;14973;51.460;7.008;2023-04-16T13:27:55;15.40;1.00
27534;DHT22;14973;51.460;7.008;2023-04-16T13:30:21;15.30;1.00
27534;DHT22;14973;51.460;7.008;2023-04-16T13:32:46;15.20;1.00
27534;DHT22;14973;51.460;7.008;2023-04-16T13:35:12;15.10;1.00
27534;DHT22;14973;51.460;7.008;2023-04-16T13:37:37;15.60;1.00
27534;DHT22;14973;51.460;7.008;2023-04-16T13:40:03;15.70;1.00
27534;DHT22;14973;51.460;7.008;2023-04-16T13:42:29;15.90;1.00
27534;DHT22;14973;51.460;7.008;2023-04-16T13:44:54;16.20;1.00
27534;DHT22;14973;51.460;7.008;2023-04-16T13:47:21;16.50;99.90
27534;DHT22;14973;51.460;7.008;2023-04-16T13:49:47;16.20;99.90
27534;DHT22;14973;51.460;7.008;2023-04-16T13:52:12;16.00;99.90
27534;DHT22;14973;51.460;7.008;2023-04-16T13:54:38;16.00;99.90
27534;DHT22;14973;51.460;7.008;2023-04-16T13:57:04;16.10;99.90
27534;DHT22;14973;51.460;7.008;2023-04-16T13:59:30;16.10;99.90
27534;DHT22;14973;51.460;7.008;2023-04-16T14:01:56;16.00;99.90
27534;DHT22;14973;51.460;7.008;2023-04-16T14:04:21;15.80;99.90
27534;DHT22;14973;51.460;7.008;2023-04-16T14:06:48;15.70;99.90
27534;DHT22;14973;51.460;7.008;2023-04-16T14:09:13;15.70;99.90
27534;DHT22;14973;51.460;7.008;2023-04-16T14:11:39;15.50;99.90
27534;DHT22;14973;51.460;7.008;2023-04-16T14:14:04;15.40;99.90
27534;DHT22;14973;51.460;7.008;2023-04-16T14:16:30;15.50;99.90
27534;DHT22;14973;51.460;7.008;2023-04-16T14:18:55;15.50;99.90
27534;DHT22;14973;51.460;7.008;2023-04-16T14:21:21;15.60;99.90
27534;DHT22;14973;51.460;7.008;2023-04-16T14:23:46;15.80;99.90
27534;DHT22;14973;51.460;7.008;2023-04-16T14:26:12;16.00;99.90
27534;DHT22;14973;51.460;7.008;2023-04-16T14:28:37;16.00;99.90
27534;DHT22;14973;51.460;7.008;2023-04-16T14:31:04;16.10;99.90
27534;DHT22;14973;51.460;7.008;2023-04-16T14:33:29;15.90;99.90
27534;DHT22;14973;51.460;7.008;2023-04-16T14:35:56;15.80;99.90
27534;DHT22;14973;51.460;7.008;2023-04-16T14:38:22;15.80;99.90
27534;DHT22;14973;51.460;7.008;2023-04-16T14:40:47;15.80;99.90
27534;DHT22;14973;51.460;7.008;2023-04-16T14:43:13;15.90;99.90
27534;DHT22;14973;51.460;7.008;2023-04-16T14:45:39;15.80;99.90
27534;DHT22;14973;51.460;7.008;2023-04-16T14:48:05;15.90;99.90
27534;DHT22;14973;51.460;7.008;2023-04-16T14:50:32;16.10;99.90
27534;DHT22;14973;51.460;7.008;2023-04-16T14:52:58;16.30;99.90
27534;DHT22;14973;51.460;7.008;2023-04-16T14:55:23;16.40;99.90
27534;DHT22;14973;51.460;7.008;2023-04-16T14:57:49;16.50;99.90
27534;DHT22;14973;51.460;7.008;2023-04-16T15:00:15;16.50;99.90
27534;DHT22;14973;51.460;7.008;2023-04-16T15:02:43;16.50;99.90
27534;DHT22;14973;51.460;7.008;2023-04-16T15:05:08;16.60;99.90
27534;DHT22;14973;51.460;7.008;2023-04-16T15:07:35;16.90;99.90
27534;DHT22;14973;51.460;7.008;2023-04-16T15:10:00;17.00;99.90
27534;DHT22;14973;51.460;7.008;2023-04-16T15:12:26;17.00;99.90
27534;DHT22;14973;51.460;7.008;2023-04-16T15:14:52;17.20;99.90
27534;DHT22;14973;51.460;7.008;2023-04-16T15:17:18;17.20;99.90
27534;DHT22;14973;51.460;7.008;2023-04-16T15:19:43;17.30;99.90
27534;DHT22;14973;51.460;7.008;2023-04-16T15:22:09;17.10;99.90
27534;DHT22;14973;51.460;7.008;2023-04-16T15:24:34;17.10;99.90
27534;DHT22;14973;51.460;7.008;2023-04-16T15:27:00;16.70;99.90
27534;DHT22;14973;51.460;7.008;2023-04-16T15:29:26;16.70;99.90
27534;DHT22;14973;51.460;7.008;2023-04-16T15:31:52;16.70;99.90
27534;DHT22;14973;51.460;7.008;2023-04-16T15:34:17;16.70;99.90
27534;DHT22;14973;51.460;7.008;2023-04-16T15:36:43;16.80;99.90